x

Bodega Bay - 48nm Nnw Of San Francisco, Ca (46013) Wave Buoy

11:50pm - Thu 24th Apr 2014 All times are PDT. -7 hours from GMT.

  • Sig Wave height 6.6ft
  • Peak Period 11s
  • Average Period 8s
  • Wind
    4mph
  • Sea Temp 51°f
  • Air Temp 53°f
  • Sea Pressure 1015.2mb
  • Bodega Bay - 48nm Nnw Of San Francisco, Ca
  • Bodega Bay - 48nm Nnw Of San Francisco, Ca

More Historic Weather Station data

Upgrade to MSW Pro to gain access to the past 30 days of data for over 8000 Wavebouys and Weather Stations around the globe.

Join Pro

Comparision Forecast

View Surf forecast
   
Thu 04/24 11:50pm 6.5ft 11s 8s 4
mph
1015.2mb 51f 53f
10:50pm 7ft 11s 8s 7 9 mph 1015.8mb 51f 53f
9:50pm 6ft 10s 8s 4 7 mph 1015.9mb 51f 53f
8:50pm 6.5ft 11s 8s 7 9 mph 1015.6mb 51f 53f
7:50pm 6ft 11s 8s 7 9 mph 1016.2mb 51f 54f
6:50pm 5.5ft 11s 7s 4 7 mph 1016.6mb 52f 54f
5:50pm 6ft 11s 8s 7 9 mph 1017.3mb 52f 54f
4:50pm 6ft 10s 8s 4 7 mph 1017.8mb 53f 54f
3:50pm 6ft 10s 8s 7
mph
1018.3mb 53f 55f
2:50pm 6ft 11s 8s 4 7 mph 1019mb 54f 54f
1:50pm 5.5ft 11s 8s 4
mph
1019.2mb 53f 54f
12:50pm 5.5ft 11s 8s 4 7 mph 1019.7mb 52f 54f
11:50am 5.5ft 11s 8s 2
mph
1019.8mb 51f 52f
10:50am 5.5ft 11s 7s 2 4 mph 1020.1mb 50f 51f
9:50am 6ft 11s 8s 2 4 mph 1019.7mb 50f 51f
8:50am 6ft 11s 8s 4
mph
1019.6mb 50f 53f
7:50am 6ft 11s 8s 2 4 mph 1019.5mb 49f 52f
6:50am 5.5ft 11s 7s  -  4 mph 1019mb 49f 51f
5:50am 6.5ft 12s 8s  -  2 mph 1018.4mb 49f 52f
4:50am 6ft 11s 8s 7 9 mph 1018.8mb 49f 52f
3:50am 6ft 11s 8s 4 7 mph 1018.7mb 50f 51f
2:50am 6ft 12s 8s 7
mph
1019.4mb 50f 51f
1:50am 6.5ft 11s 8s 4
mph
1019.6mb 50f 51f
12:50am 6.5ft 11s 8s 2 4 mph 1019.4mb 50f 52f
Wed 04/23 11:50pm 6ft 12s 8s 4 7 mph 1020mb 50f 51f
10:50pm 6ft 12s 9s 7
mph
1020.5mb 50f 51f
9:50pm 6.5ft 12s 8s 7
mph
1020.9mb 50f 51f
8:50pm 6ft 13s 8s 7 9 mph 1020.6mb 50f 51f
7:50pm 6ft 12s 8s 9
mph
1020.5mb 50f 52f
6:50pm 7ft 12s 9s 11 13 mph 1020.5mb 50f 52f
5:50pm 6.5ft 12s 8s 13 16 mph 1020.3mb 50f 52f
4:50pm 7ft 12s 8s 13 16 mph 1020.6mb 50f 53f
3:50pm 7ft 14s 9s 13 16 mph 1020.8mb 50f 52f
2:50pm 7ft 11s 9s 13 18 mph 1021.1mb 50f 52f
1:50pm 7ft 13s 9s 16 18 mph 1021.4mb 50f 51f
12:50pm 7.5ft 12s 9s 13 16 mph 1021.9mb 50f 51f
11:50am 7ft 12s 9s 13 16 mph 1022.1mb 49f 51f
10:50am 7ft 12s 9s 16 18 mph 1021.7mb 49f 51f
9:50am 7ft 13s 9s 9 11 mph 1021.6mb 49f 50f
8:50am 6.5ft 12s 8s 9 11 mph 1021.4mb 49f 50f
7:50am 7ft 12s 9s 9 11 mph 1021.1mb 49f 50f
6:50am  -   -   -  7 9 mph 1020.8mb 49f 50f
5:50am 6.5ft 12s 7s 13
mph
1020.2mb 49f 50f
4:50am 7ft 12s 7s 16 18 mph 1019.9mb 49f 50f
3:50am 7ft 12s 8s 13 16 mph 1019.9mb 49f 50f
2:50am  -   -   -  16 18 mph 1020.2mb 49f 50f
1:50am  -   -   -  16 18 mph 1020.5mb 49f 50f
12:50am 6ft 12s 7s 16 18 mph 1020.7mb 49f 50f
Tue 04/22 11:50pm 6.5ft 13s 7s 16 20 mph 1020.7mb 49f 50f
10:50pm 7.5ft 12s 7s 18 20 mph 1021mb 49f 51f
9:50pm 7.5ft 12s 7s 18 22 mph 1020.8mb 49f 51f
8:50pm 7.5ft 12s 7s 18 22 mph 1020.5mb 49f 51f
7:50pm 7.5ft 12s 7s 18 20 mph 1020.3mb 50f 51f
5:50pm 7.5ft 13s 8s 16 20 mph 1020.3mb 50f 51f
4:50pm 8ft 13s 8s 16 18 mph 1020.5mb 50f 51f
3:50pm  -   -   -  13
mph
- - 51f
2:50pm 8ft 12s 8s 16 18 mph 1020.9mb 49f 51f
1:50pm 7ft 13s 8s 16 20 mph 1020.9mb 49f 51f
12:50pm 7.5ft 13s 8s 13 18 mph 1020.7mb 49f 50f
11:50am 8.5ft 13s 8s 16 18 mph 1020.9mb 49f 50f
10:50am 8ft 12s 8s 13 16 mph 1020.4mb 49f 50f
9:50am 9ft 12s 8s 13 16 mph 1020.2mb 49f 50f
8:50am 8ft 14s 7s 13 16 mph 1019.5mb 49f 50f
7:50am 9ft 13s 8s 16 18 mph 1018.9mb 49f 50f
6:50am 9ft 12s 7s 18 22 mph 1018.4mb 49f 50f
5:50am 9.5ft 13s 8s 20 25 mph 1017.3mb 49f 50f
4:50am 10ft 13s 8s 18 25 mph 1016.8mb 49f 50f
3:50am  -   -   -  20 25 mph 1016.1mb 49f 50f
1:50am  -   -   -  20 25 mph 1016.1mb 49f 50f
12:50am 10ft 14s 8s 18 22 mph 1016.1mb 49f 49f
Mon 04/21 11:50pm  -   -   -  20 25 mph 1015.7mb 49f 49f
10:50pm 9ft 12s 10s 22 29 mph 1015.9mb 49f 49f
9:50pm 9ft 14s 10s 7 9 mph 1015.9mb 49f 51f
8:50pm 10ft 13s 10s 4 7 mph 1015.9mb 49f 51f
7:50pm 9ft 14s 10s 4 7 mph 1015.8mb 49f 51f
6:50pm 9.5ft 14s 10s 7 9 mph 1016.5mb 49f 51f
5:50pm 9.5ft 14s 10s 4 9 mph 1017mb 49f 51f
4:50pm 10ft 14s 10s 4 7 mph 1017.2mb 49f 51f
3:50pm 10ft 14s 10s 7 9 mph 1016.9mb 49f 51f
2:50pm 11ft 14s 10s 9 11 mph 1018.1mb 49f 51f
1:50pm 10ft 14s 10s 7 9 mph 1017.7mb 49f 51f
12:50pm 9.5ft 14s 9s 4 9 mph 1018mb 49f 50f
11:50am 10ft 14s 9s 7 9 mph 1018.7mb 49f 50f
10:50am 11ft 14s 10s 9 13 mph 1018.6mb 49f 50f
9:50am 11ft 14s 9s 7 11 mph 1017.9mb 49f 50f
8:50am 12ft 14s 9s 11 13 mph 1018.1mb 49f 51f